Details for SpiceJet at VOHS




Go Back


Latest METAR
Local Time

VOHS 061700Z 34005KT 5000 HZ FEW015 SCT100 28/18 Q1016 NOSIG
07/04/2020, 00:16:03

Description
Results
SpiceJet Logo
Number of Pilots based at VOHS
0 Pilots Based here
Number of SpiceJet Flights Departed from VOHS
0 Flights Departed
Number of SpiceJet Flights Arrived at VOHS
0 Flights Arrived
Number of SpiceJet Schedules Departing from VOHS
42 Schedules
Number of SpiceJet Schedules Arriving at VOHS
44 Schedules
Number of SpiceJet Schedules Departing from VOHS availible today
37 Schedules Today
Number of SpiceJet Schedules Arriving at VOHS availible today
38 Schedules Today
Average Landing Rate at VOHS
0 fpm
SpiceJet Average Landing Rate at VOHS
0 fpm
Total Fuel Purchased at VOHS by SpiceJet
0.00 kgs / 0.00 lbs

Pilots Based at VOHS


Pilot ID
Pilot Name
Pilot Rank
No. of Flights
No. of Flying Hours
There are no pilots assigned to this hub!   Will you be the first?